Time;durP1;ratioP1;P1;durP2;ratioP2;P2;SDS_P1;SDS_P2;PMS_P1;PMS_P2;Temp;Humidity;BMP_temperature;BMP_pressure;BME280_temperature;BME280_humidity;BME280_pressure;Samples;Min_cycle;Max_cycle;Signal;HPM_P1;HPM_P2
2022/03/04 00:00:05;;;;;;;31.92;13.73;;;;;;;-1.94;49.64;99402.91;4902511;29;20123;-80
2022/03/04 00:02:37;;;;;;;35.00;13.70;;;;;;;-2.01;50.09;99381.41;4887259;29;20064;-78
2022/03/04 00:05:04;;;;;;;36.83;13.88;;;;;;;-1.87;50.17;99410.81;4878643;29;20040;-79
2022/03/04 00:07:30;;;;;;;35.45;12.23;;;;;;;-1.97;50.02;99385.81;4860328;29;20049;-80
2022/03/04 00:09:56;;;;;;;33.25;11.63;;;;;;;-1.95;50.10;99383.31;4862183;29;21017;-79
2022/03/04 00:12:22;;;;;;;49.17;11.98;;;;;;;-1.90;49.94;99400.53;4847071;29;20071;-80
2022/03/04 00:14:51;;;;;;;37.50;13.05;;;;;;;-1.79;49.91;99398.34;4861485;29;20073;-80
2022/03/04 00:17:17;;;;;;;35.67;12.13;;;;;;;-1.79;49.77;99393.25;4879845;29;20037;-80
2022/03/04 00:19:43;;;;;;;41.58;12.70;;;;;;;-1.76;50.17;99403.53;4862563;29;20044;-79
2022/03/04 00:22:09;;;;;;;36.05;12.40;;;;;;;-1.79;50.27;99406.00;4863124;29;20164;-81
2022/03/04 00:24:35;;;;;;;33.95;12.57;;;;;;;-1.77;50.25;99394.16;4861570;29;20436;-82
2022/03/04 00:27:01;;;;;;;28.52;11.52;;;;;;;-1.69;50.44;99402.06;4860552;29;20045;-80
2022/03/04 00:29:27;;;;;;;36.47;12.10;;;;;;;-1.82;50.13;99365.94;4861899;29;20044;-78
2022/03/04 00:31:53;;;;;;;31.17;12.35;;;;;;;-1.69;49.91;99377.41;4845487;29;20061;-79
2022/03/04 00:34:19;;;;;;;28.40;12.20;;;;;;;-1.61;49.95;99387.88;4847801;29;20184;-79
2022/03/04 00:36:45;;;;;;;32.97;11.82;;;;;;;-1.65;49.91;99387.72;4860838;29;20127;-80
2022/03/04 00:39:13;;;;;;;28.33;11.05;;;;;;;-1.61;50.28;99394.69;4830989;29;20108;-79
2022/03/04 00:41:39;;;;;;;34.72;11.20;;;;;;;-1.60;50.53;99383.66;4863117;29;20131;-79
2022/03/04 00:44:06;;;;;;;31.00;11.98;;;;;;;-1.49;50.67;99395.06;4863890;29;20104;-79
2022/03/04 00:46:33;;;;;;;32.83;11.98;;;;;;;-1.46;50.35;99387.53;4830594;29;20514;-80
2022/03/04 00:48:59;;;;;;;29.10;12.35;;;;;;;-1.33;50.33;99396.44;4877340;29;20045;-78
2022/03/04 00:51:25;;;;;;;28.33;11.90;;;;;;;-1.35;50.23;99390.44;4863837;29;20037;-79
2022/03/04 00:53:51;;;;;;;35.38;11.35;;;;;;;-1.27;50.17;99395.78;4847142;29;20037;-80
2022/03/04 00:56:20;;;;;;;27.77;11.52;;;;;;;-1.44;50.27;99364.63;4861526;29;20047;-79
2022/03/04 00:58:46;;;;;;;35.13;12.75;;;;;;;-1.25;50.13;99383.94;4880495;29;20033;-79
2022/03/04 01:01:13;;;;;;;31.40;12.90;;;;;;;-1.34;49.44;99394.72;4861238;29;20045;-80
2022/03/04 01:03:39;;;;;;;28.27;11.43;;;;;;;-1.52;49.95;99375.44;4872429;29;20059;-80
2022/03/04 01:06:06;;;;;;;33.55;11.98;;;;;;;-1.64;50.29;99359.69;4894672;29;20048;-79
2022/03/04 01:08:33;;;;;;;28.48;11.55;;;;;;;-1.64;50.86;99367.34;4875846;29;20057;-79
2022/03/04 01:11:00;;;;;;;39.83;11.65;;;;;;;-1.49;51.53;99367.00;4873768;29;20108;-79
2022/03/04 01:13:26;;;;;;;25.92;10.32;;;;;;;-1.32;51.26;99374.38;4888285;29;20487;-78
2022/03/04 01:15:54;;;;;;;23.55;9.45;;;;;;;-1.38;50.96;99352.03;4874043;29;20411;-79
2022/03/04 01:18:21;;;;;;;27.20;11.20;;;;;;;-1.20;51.09;99377.28;4887805;29;20045;-79
2022/03/04 01:20:47;;;;;;;21.77;9.82;;;;;;;-1.15;51.28;99369.75;4873813;29;20045;-80
2022/03/04 01:23:13;;;;;;;26.35;10.07;;;;;;;-1.13;50.55;99366.47;4873022;29;20052;-82
2022/03/04 01:25:38;;;;;;;15.75;8.02;;;;;;;-1.13;50.47;99351.13;4874231;29;20060;-78
2022/03/04 01:28:05;;;;;;;15.63;6.72;;;;;;;-1.16;50.49;99347.59;4873887;29;20048;-79
2022/03/04 01:30:30;;;;;;;15.63;5.93;;;;;;;-0.99;50.33;99371.97;4889250;29;20041;-78
2022/03/04 01:32:56;;;;;;;12.43;6.07;;;;;;;-0.96;50.72;99355.88;4873291;29;20127;-79
2022/03/04 01:35:22;;;;;;;13.20;5.82;;;;;;;-0.87;50.04;99357.84;4885248;29;20041;-77
2022/03/04 01:37:48;;;;;;;9.93;5.13;;;;;;;-0.81;49.92;99366.56;4876858;29;20048;-78
2022/03/04 01:40:15;;;;;;;12.15;4.78;;;;;;;-0.75;49.84;99386.31;4905702;29;20060;-79
2022/03/04 01:42:41;;;;;;;10.57;5.00;;;;;;;-0.71;49.68;99379.63;4889113;29;20446;-78
2022/03/04 01:45:09;;;;;;;12.05;4.30;;;;;;;-0.84;49.81;99350.28;4889421;29;20124;-81
2022/03/04 01:47:40;;;;;;;9.57;4.50;;;;;;;-0.80;49.73;99352.13;4883792;29;20045;-79
2022/03/04 01:50:07;;;;;;;10.52;4.50;;;;;;;-0.66;49.39;99372.97;4872553;29;20049;-78
2022/03/04 01:52:32;;;;;;;8.95;4.15;;;;;;;-0.80;49.41;99342.75;4872528;29;20781;-79
2022/03/04 01:54:58;;;;;;;8.15;4.63;;;;;;;-0.62;49.23;99367.09;4903585;29;20045;-80
2022/03/04 01:57:24;;;;;;;11.15;4.70;;;;;;;-0.79;49.42;99352.16;4903529;29;20050;-79
2022/03/04 01:59:50;;;;;;;9.02;4.30;;;;;;;-0.73;49.37;99348.91;4887268;29;20132;-78
2022/03/04 02:02:16;;;;;;;11.18;4.72;;;;;;;-0.59;49.02;99366.34;4903511;29;20056;-80
2022/03/04 02:04:43;;;;;;;9.38;4.07;;;;;;;-0.59;48.84;99372.31;4882597;29;20109;-79
2022/03/04 02:07:09;;;;;;;8.35;4.00;;;;;;;-0.70;48.96;99361.78;4856932;29;20040;-78
2022/03/04 02:09:35;;;;;;;8.48;4.10;;;;;;;-0.57;49.19;99390.25;4871445;29;20081;-79
2022/03/04 02:12:01;;;;;;;8.80;4.10;;;;;;;-0.57;48.79;99388.56;4872287;29;20096;-79
2022/03/04 02:14:28;;;;;;;11.43;5.07;;;;;;;-0.53;48.54;99392.94;4873699;29;20183;-80
2022/03/04 02:16:54;;;;;;;10.60;4.20;;;;;;;-0.55;48.83;99391.19;4883047;29;20076;-79
2022/03/04 02:19:21;;;;;;;9.63;3.95;;;;;;;-0.51;48.69;99391.31;4903641;29;20067;-79
2022/03/04 02:21:56;;;;;;;10.15;4.55;;;;;;;-0.57;48.84;99382.59;4873640;29;20041;-80
2022/03/04 02:24:24;;;;;;;10.13;4.45;;;;;;;-0.63;48.82;99379.03;4887247;29;20123;-80
2022/03/04 02:26:52;;;;;;;9.90;3.92;;;;;;;-0.69;48.73;99373.72;4886434;29;20040;-79
2022/03/04 02:29:19;;;;;;;10.45;4.38;;;;;;;-0.67;48.97;99386.56;4904183;29;20045;-79
2022/03/04 02:31:46;;;;;;;9.05;4.07;;;;;;;-0.76;48.64;99379.47;4862275;29;20097;-78
2022/03/04 02:34:13;;;;;;;12.95;4.05;;;;;;;-0.73;48.48;99389.78;4900530;29;20349;-79
2022/03/04 02:36:40;;;;;;;9.27;4.40;;;;;;;-0.75;48.09;99393.97;4912699;29;20048;-81
2022/03/04 02:39:07;;;;;;;8.18;3.95;;;;;;;-0.83;48.68;99390.34;4879074;29;20037;-80
2022/03/04 02:41:36;;;;;;;11.93;4.40;;;;;;;-0.96;48.79;99381.44;4891861;29;20400;-81
2022/03/04 02:44:06;;;;;;;11.32;4.32;;;;;;;-1.19;48.91;99355.16;4874931;29;20575;-79
2022/03/04 02:46:32;;;;;;;8.60;4.15;;;;;;;-0.92;49.06;99396.03;4859183;29;20033;-80
2022/03/04 02:48:59;;;;;;;9.35;4.18;;;;;;;-0.84;48.97;99388.59;4906322;29;20132;-79
2022/03/04 02:51:25;;;;;;;7.53;4.28;;;;;;;-0.85;49.05;99376.66;4874951;29;20040;-80
2022/03/04 02:53:51;;;;;;;9.52;4.80;;;;;;;-1.22;48.60;99323.63;4890322;29;20134;-81
2022/03/04 02:56:18;;;;;;;9.02;4.25;;;;;;;-0.94;48.74;99375.53;4890837;29;20406;-80
2022/03/04 02:58:45;;;;;;;11.25;4.80;;;;;;;-1.05;48.75;99382.03;4890612;29;20092;-80
2022/03/04 03:01:11;;;;;;;7.95;4.15;;;;;;;-1.00;48.94;99394.94;4874605;29;20511;-80
2022/03/04 03:03:37;;;;;;;13.73;5.22;;;;;;;-1.07;48.52;99373.44;4880300;29;20136;-81
2022/03/04 03:06:04;;;;;;;9.80;4.95;;;;;;;-1.04;49.30;99373.53;4879629;29;20048;-81
2022/03/04 03:08:31;;;;;;;12.27;6.13;;;;;;;-0.96;49.23;99395.06;4849965;29;20388;-80
2022/03/04 03:10:57;;;;;;;16.60;7.10;;;;;;;-1.05;49.00;99376.91;4880417;29;20076;-80
2022/03/04 03:13:23;;;;;;;26.33;9.70;;;;;;;-1.08;49.06;99379.38;4875881;29;20044;-80
2022/03/04 03:15:50;;;;;;;24.88;10.43;;;;;;;-1.00;48.92;99394.94;4879405;29;20044;-79
2022/03/04 03:18:17;;;;;;;27.13;11.00;;;;;;;-1.26;48.70;99355.00;4848880;29;20068;-78
2022/03/04 03:20:44;;;;;;;22.17;9.80;;;;;;;-1.15;49.11;99385.09;4864877;29;20040;-80
2022/03/04 03:23:11;;;;;;;21.67;8.40;;;;;;;-1.12;49.26;99388.63;4864615;29;20083;-80
2022/03/04 03:25:36;;;;;;;18.77;8.40;;;;;;;-1.56;48.77;99320.00;4857097;29;20041;-80
2022/03/04 03:28:03;;;;;;;17.10;6.95;;;;;;;-1.18;49.51;99382.44;4873738;29;20514;-80
2022/03/04 03:30:29;;;;;;;14.85;6.80;;;;;;;-1.09;49.29;99396.34;4848014;29;21482;-80
2022/03/04 03:32:56;;;;;;;15.13;7.45;;;;;;;-1.31;48.91;99366.75;4864141;29;20043;-79
2022/03/04 03:35:22;;;;;;;21.20;7.07;;;;;;;-1.19;49.78;99393.47;4866054;29;20069;-78
2022/03/04 03:37:48;;;;;;;15.93;6.43;;;;;;;-1.27;49.28;99391.56;4865816;29;20048;-78
2022/03/04 03:40:15;;;;;;;15.32;6.82;;;;;;;-1.24;49.44;99401.88;4875287;29;20044;-81
2022/03/04 03:42:42;;;;;;;14.20;6.43;;;;;;;-1.38;49.44;99391.22;4885277;29;20079;-80
2022/03/04 03:45:10;;;;;;;16.90;6.75;;;;;;;-1.33;49.48;99390.50;4885582;29;20045;-79
2022/03/04 03:47:38;;;;;;;14.05;6.18;;;;;;;-1.31;49.43;99402.47;4868493;29;20481;-78
2022/03/04 03:50:09;;;;;;;17.70;6.80;;;;;;;-1.41;49.56;99401.31;4866566;29;20081;-81
2022/03/04 03:52:39;;;;;;;15.07;7.57;;;;;;;-1.42;49.90;99401.25;4863185;29;20045;-80
2022/03/04 03:55:06;;;;;;;18.08;7.03;;;;;;;-1.41;50.21;99405.53;4843715;29;20044;-80
2022/03/04 03:57:32;;;;;;;20.00;7.63;;;;;;;-1.43;49.94;99402.06;4848092;29;20107;-78
2022/03/04 03:59:58;;;;;;;16.33;7.45;;;;;;;-1.45;50.06;99403.72;4863486;29;20072;-79
2022/03/04 04:02:24;;;;;;;14.57;7.22;;;;;;;-1.61;49.93;99384.47;4880921;29;20591;-80
2022/03/04 04:04:50;;;;;;;21.33;7.82;;;;;;;-1.46;49.87;99418.16;4867777;29;20076;-78
2022/03/04 04:07:16;;;;;;;15.35;6.30;;;;;;;-1.64;49.82;99407.34;4882189;29;20143;-80
2022/03/04 04:09:42;;;;;;;17.23;7.00;;;;;;;-1.61;50.47;99410.84;4884700;29;20518;-79
2022/03/04 04:12:09;;;;;;;18.42;6.93;;;;;;;-1.59;50.53;99406.66;4883039;29;20045;-80
2022/03/04 04:14:35;;;;;;;17.27;6.78;;;;;;;-1.62;50.29;99409.09;4884216;29;20041;-80
2022/03/04 04:17:01;;;;;;;16.45;6.93;;;;;;;-1.81;50.00;99392.31;4882188;29;20507;-80
2022/03/04 04:19:27;;;;;;;20.50;7.43;;;;;;;-1.79;50.60;99415.31;4898654;29;20036;-79
2022/03/04 04:21:53;;;;;;;18.33;7.13;;;;;;;-1.99;50.91;99382.34;4881583;29;21051;-79
2022/03/04 04:24:19;;;;;;;16.55;7.25;;;;;;;-1.71;51.38;99419.88;4886990;29;20530;-80
2022/03/04 04:26:45;;;;;;;14.95;6.30;;;;;;;-1.75;51.39;99412.06;4886939;29;20036;-77
2022/03/04 04:29:12;;;;;;;17.67;7.38;;;;;;;-1.83;51.12;99399.91;4904963;29;20045;-80
2022/03/04 04:31:39;;;;;;;19.00;8.05;;;;;;;-1.65;51.77;99428.56;4913436;29;20032;-79
2022/03/04 04:34:05;;;;;;;15.18;7.55;;;;;;;-1.86;51.31;99389.59;4906425;29;20572;-79
2022/03/04 04:36:31;;;;;;;15.98;7.00;;;;;;;-1.64;51.38;99435.41;4894238;29;20045;-80
2022/03/04 04:38:57;;;;;;;19.33;7.88;;;;;;;-1.68;51.54;99429.34;4888807;29;20043;-78
2022/03/04 04:41:22;;;;;;;18.58;7.10;;;;;;;-1.63;51.97;99432.88;4898387;29;20048;-81
2022/03/04 04:43:49;;;;;;;19.35;8.02;;;;;;;-1.49;51.67;99437.63;4904991;29;20546;-80
2022/03/04 04:46:15;;;;;;;18.60;7.78;;;;;;;-1.68;51.64;99408.91;4899174;29;20072;-79
2022/03/04 04:48:42;;;;;;;16.85;7.38;;;;;;;-1.40;52.04;99445.56;4901893;29;20076;-80
2022/03/04 04:51:10;;;;;;;21.70;9.05;;;;;;;-1.44;51.89;99424.19;4905782;29;20042;-81
2022/03/04 04:53:36;;;;;;;21.67;8.30;;;;;;;-1.26;51.78;99451.13;4900329;29;20045;-80
2022/03/04 04:56:02;;;;;;;15.45;7.75;;;;;;;-1.36;52.16;99429.53;4884370;29;20116;-80
2022/03/04 04:58:29;;;;;;;15.75;7.90;;;;;;;-1.17;51.85;99459.13;4884356;29;20500;-80
2022/03/04 05:00:55;;;;;;;17.77;7.22;;;;;;;-1.30;52.13;99437.41;4882840;29;20049;-80
2022/03/04 05:03:25;;;;;;;19.80;7.55;;;;;;;-1.19;51.78;99449.66;4884655;29;20082;-81
2022/03/04 05:05:55;;;;;;;20.75;7.50;;;;;;;-1.17;51.96;99464.22;4884546;29;20052;-81
2022/03/04 05:08:21;;;;;;;14.88;6.95;;;;;;;-1.27;51.88;99444.28;4852134;29;20452;-78
2022/03/04 05:10:48;;;;;;;13.95;7.47;;;;;;;-1.13;52.01;99462.63;4913280;29;20128;-80
2022/03/04 05:13:15;;;;;;;17.15;7.85;;;;;;;-1.22;51.61;99453.88;4883068;29;20051;-80
2022/03/04 05:15:41;;;;;;;17.20;7.72;;;;;;;-1.18;51.92;99471.81;4915233;29;20124;-79
2022/03/04 05:18:10;;;;;;;16.00;8.18;;;;;;;-1.15;52.05;99472.81;4902065;29;20073;-78
2022/03/04 05:20:36;;;;;;;15.27;7.60;;;;;;;-1.22;52.22;99463.19;4893093;29;20045;-80
2022/03/04 05:23:58;;;;;;;16.20;8.05;;;;;;;-0.99;52.04;99481.81;4886969;29;20074;-80
2022/03/04 05:25:57;;;;;;;21.52;8.60;;;;;;;-0.93;52.45;99476.91;4866807;29;20060;-80
2022/03/04 05:28:23;;;;;;;18.33;7.70;;;;;;;-1.08;52.03;99433.84;4917813;29;20049;-81
2022/03/04 05:30:50;;;;;;;18.38;9.00;;;;;;;-0.77;51.86;99474.84;4882777;29;20521;-81
2022/03/04 05:33:16;;;;;;;18.65;8.48;;;;;;;-0.69;51.59;99480.22;4887733;29;20048;-81
2022/03/04 05:35:45;;;;;;;19.73;8.80;;;;;;;-0.50;51.67;99485.06;4881871;29;20119;-77
2022/03/04 05:38:11;;;;;;;16.20;9.20;;;;;;;-0.39;51.38;99492.19;4896321;29;20076;-82
2022/03/04 05:40:37;;;;;;;18.58;9.55;;;;;;;-0.31;51.72;99498.41;4882550;29;20088;-78
2022/03/04 05:43:08;;;;;;;21.75;9.57;;;;;;;-0.23;50.99;99473.06;4880300;29;20100;-79
2022/03/04 05:45:35;;;;;;;20.95;9.60;;;;;;;0.23;51.65;99492.28;4910347;29;20098;-78
2022/03/04 05:48:01;;;;;;;21.15;9.55;;;;;;;0.39;50.93;99500.38;4881551;29;20037;-79
2022/03/04 05:50:27;;;;;;;20.60;9.95;;;;;;;0.32;50.67;99478.03;4881482;29;20139;-80
2022/03/04 05:52:53;;;;;;;19.23;9.77;;;;;;;0.44;50.45;99483.47;4880776;29;20045;-78
2022/03/04 05:55:19;;;;;;;20.63;9.85;;;;;;;0.53;50.37;99493.09;4912790;29;20041;-79
2022/03/04 05:57:47;;;;;;;23.00;10.40;;;;;;;0.48;50.40;99492.09;4883732;29;20047;-78
2022/03/04 06:00:14;;;;;;;22.48;10.70;;;;;;;0.43;49.97;99502.22;4886781;29;20124;-79
2022/03/04 06:02:39;;;;;;;20.42;10.48;;;;;;;0.41;50.36;99491.06;4865920;29;20155;-79
2022/03/04 06:05:06;;;;;;;22.55;11.00;;;;;;;0.40;50.37;99472.28;4880025;29;20147;-78
2022/03/04 06:07:35;;;;;;;21.27;11.27;;;;;;;0.60;49.99;99508.66;4879677;29;20192;-80
2022/03/04 06:10:02;;;;;;;21.38;10.18;;;;;;;0.58;50.23;99510.31;4882736;29;20127;-80
2022/03/04 06:12:28;;;;;;;22.38;10.68;;;;;;;0.45;50.08;99498.00;4882669;29;20036;-79
2022/03/04 06:14:54;;;;;;;21.88;10.85;;;;;;;0.54;50.66;99515.31;4896083;29;20053;-78
2022/03/04 06:17:21;;;;;;;23.30;10.82;;;;;;;0.60;50.13;99516.34;4866961;29;20052;-78
2022/03/04 06:19:47;;;;;;;22.90;11.13;;;;;;;0.43;50.37;99487.75;4890496;29;20047;-78
2022/03/04 06:22:13;;;;;;;20.00;10.40;;;;;;;0.63;49.94;99525.81;4886625;29;20041;-78
2022/03/04 06:24:39;;;;;;;20.00;11.25;;;;;;;0.45;49.75;99498.84;4859640;29;20045;-78
2022/03/04 06:27:08;;;;;;;23.92;11.27;;;;;;;0.58;49.99;99514.56;4868523;29;20113;-80
2022/03/04 06:29:43;;;;;;;22.05;11.27;;;;;;;0.42;49.74;99500.47;4879025;29;20049;-80
2022/03/04 06:32:13;;;;;;;25.92;10.60;;;;;;;0.09;50.15;99455.22;4872712;29;20060;-79
2022/03/04 06:34:45;;;;;;;21.02;10.65;;;;;;;0.32;50.15;99486.56;4874392;29;20472;-78
2022/03/04 06:37:37;;;;;;;19.63;9.98;;;;;;;-0.06;50.21;99419.84;4882425;29;20048;-77
2022/03/04 06:40:43;;;;;;;22.67;11.02;;;;;;;0.56;50.35;99513.66;4908194;29;20127;-81
2022/03/04 06:43:37;;;;;;;22.02;10.25;;;;;;;0.56;50.54;99513.66;4887307;29;20057;-80
2022/03/04 06:46:52;;;;;;;19.58;10.27;;;;;;;0.40;50.34;99492.78;4911695;29;20044;-81
2022/03/04 06:49:21;;;;;;;22.50;9.13;;;;;;;0.20;50.49;99455.53;4886293;29;20079;-79
2022/03/04 06:51:53;;;;;;;18.15;9.25;;;;;;;0.38;50.14;99491.84;4882578;29;20525;-79
2022/03/04 06:54:39;;;;;;;21.63;9.82;;;;;;;0.64;50.44;99529.22;4911899;29;20075;-78
2022/03/04 06:57:08;;;;;;;18.77;10.23;;;;;;;0.54;49.73;99488.03;4882375;29;20049;-80
2022/03/04 06:59:39;;;;;;;18.15;9.32;;;;;;;0.54;50.12;99476.91;4881459;29;20044;-79
2022/03/04 07:02:17;;;;;;;16.35;9.75;;;;;;;0.81;50.52;99504.91;4883597;29;20060;-81
2022/03/04 07:04:53;;;;;;;21.50;10.13;;;;;;;0.50;50.34;99473.41;4890951;29;20045;-78
2022/03/04 07:07:40;;;;;;;20.70;9.85;;;;;;;0.88;49.99;99506.81;4878060;29;20355;-82
2022/03/04 07:10:14;;;;;;;17.80;10.40;;;;;;;1.01;49.87;99532.75;4875194;29;20655;-79
2022/03/04 07:12:51;;;;;;;18.17;9.65;;;;;;;0.95;49.15;99518.09;4861295;29;20191;-80
2022/03/04 07:15:19;;;;;;;20.90;10.23;;;;;;;0.88;49.59;99527.31;4892701;29;20045;-80
2022/03/04 07:17:49;;;;;;;20.48;10.48;;;;;;;0.68;50.38;99493.47;4900215;29;20044;-79
2022/03/04 07:20:15;;;;;;;18.02;9.88;;;;;;;1.03;49.96;99543.91;4868224;29;20558;-78
2022/03/04 07:22:43;;;;;;;26.27;9.38;;;;;;;1.08;49.92;99549.16;4906696;29;20104;-79
2022/03/04 07:25:11;;;;;;;17.30;9.52;;;;;;;0.99;49.83;99514.78;4865855;29;20068;-80
2022/03/04 07:27:40;;;;;;;17.50;9.27;;;;;;;1.19;49.40;99533.22;4901682;29;20045;-78
2022/03/04 07:30:10;;;;;;;18.15;9.57;;;;;;;1.39;49.32;99540.53;4901520;29;20112;-78
2022/03/04 07:32:49;;;;;;;17.80;8.73;;;;;;;1.47;49.39;99546.69;4893532;29;20534;-79
2022/03/04 07:35:18;;;;;;;17.20;8.95;;;;;;;1.49;49.12;99545.03;4894639;29;20104;-80
2022/03/04 07:37:43;;;;;;;17.92;10.30;;;;;;;1.41;49.19;99533.75;4877990;29;20052;-79
2022/03/04 07:40:13;;;;;;;19.23;9.30;;;;;;;1.71;49.10;99547.25;4896084;29;20070;-81
2022/03/04 07:42:39;;;;;;;15.93;9.57;;;;;;;1.77;49.88;99522.59;4895876;29;20036;-80
2022/03/04 07:45:11;;;;;;;16.17;9.48;;;;;;;1.97;49.35;99527.31;4898351;29;20105;-81
2022/03/04 07:47:42;;;;;;;14.38;9.00;;;;;;;2.17;48.49;99526.84;4880437;29;20053;-78
2022/03/04 07:50:14;;;;;;;17.33;8.90;;;;;;;2.06;48.44;99491.56;4896353;29;20040;-79
2022/03/04 07:52:40;;;;;;;18.85;8.85;;;;;;;2.46;48.34;99539.44;4880671;29;20041;-79
2022/03/04 07:55:15;;;;;;;23.45;9.57;;;;;;;1.79;48.30;99430.25;4866918;29;20060;-81
2022/03/04 07:57:42;;;;;;;13.15;8.18;;;;;;;2.52;48.18;99535.28;4898015;29;20052;-79
2022/03/04 08:00:12;;;;;;;14.45;7.97;;;;;;;1.91;47.91;99421.94;4897047;29;20083;-82
2022/03/04 08:02:39;;;;;;;14.38;8.82;;;;;;;1.98;47.56;99420.38;4861716;29;20116;-79
2022/03/04 08:05:09;;;;;;;16.63;8.90;;;;;;;2.32;47.74;99469.81;4879079;29;20044;-79
2022/03/04 08:07:39;;;;;;;20.17;8.68;;;;;;;2.92;47.90;99542.88;4881664;29;20055;-79
2022/03/04 08:10:08;;;;;;;13.70;8.38;;;;;;;2.66;47.09;99475.56;4884161;29;20053;-78
2022/03/04 08:12:36;;;;;;;14.18;8.40;;;;;;;2.88;47.26;99512.81;4898347;29;20076;-79
2022/03/04 08:15:12;;;;;;;17.33;8.45;;;;;;;3.19;46.61;99539.06;4880596;29;20050;-79
2022/03/04 08:17:43;;;;;;;16.27;8.82;;;;;;;2.81;46.20;99474.97;4892467;29;20040;-79
2022/03/04 08:20:12;;;;;;;13.75;7.93;;;;;;;2.56;46.40;99420.56;4894420;29;20051;-80
2022/03/04 08:22:50;;;;;;;14.90;8.32;;;;;;;3.07;46.87;99483.16;4880064;29;20430;-77
2022/03/04 08:25:19;;;;;;;13.80;7.38;;;;;;;3.04;45.32;99462.53;4872970;29;20055;-79
2022/03/04 08:27:55;;;;;;;17.75;7.60;;;;;;;3.45;45.99;99523.16;4908829;29;20060;-80
2022/03/04 08:30:27;;;;;;;15.82;8.40;;;;;;;3.33;46.05;99494.69;4906308;29;20053;-79
2022/03/04 08:32:53;;;;;;;12.27;7.90;;;;;;;2.95;45.68;99403.22;4894450;29;20041;-77
2022/03/04 08:35:19;;;;;;;16.52;7.80;;;;;;;3.61;45.21;99476.25;4894940;29;20056;-78
2022/03/04 08:37:48;;;;;;;15.50;8.73;;;;;;;4.32;45.18;99532.06;4896836;29;20060;-81
2022/03/04 08:40:14;;;;;;;16.08;8.95;;;;;;;4.22;45.54;99487.31;4895131;29;20076;-80
2022/03/04 08:42:51;;;;;;;14.77;7.70;;;;;;;4.18;44.30;99450.34;4895997;29;20092;-81
2022/03/04 08:45:17;;;;;;;21.00;8.05;;;;;;;4.35;44.65;99496.03;4877179;29;20076;-81
2022/03/04 08:47:46;;;;;;;13.27;7.78;;;;;;;4.55;44.62;99485.09;4876107;29;20447;-79
2022/03/04 08:50:21;;;;;;;14.52;7.47;;;;;;;5.11;43.70;99523.47;4875765;29;20530;-80
2022/03/04 08:52:58;;;;;;;11.23;7.22;;;;;;;5.31;43.46;99532.22;4887374;29;20684;-80
2022/03/04 08:55:33;;;;;;;13.77;7.07;;;;;;;5.19;43.09;99532.97;4877000;29;20072;-80
2022/03/04 08:58:04;;;;;;;11.40;7.50;;;;;;;4.97;43.36;99476.03;4861402;29;20036;-83
2022/03/04 09:00:45;;;;;;;12.38;6.72;;;;;;;5.15;42.74;99513.19;4861623;29;20426;-80
2022/03/04 09:03:24;;;;;;;;;;;;;;;;;;;;;
2022/03/04 09:06:01;;;;;;;13.37;6.87;;;;;;;4.85;42.52;99470.78;4891886;29;20079;-81
2022/03/04 09:08:34;;;;;;;10.73;6.30;;;;;;;4.82;42.17;99464.75;4895967;29;20064;-80
2022/03/04 09:11:28;;;;;;;12.35;6.80;;;;;;;4.94;42.56;99460.56;4898587;29;20521;-81
2022/03/04 09:13:54;;;;;;;16.13;7.20;;;;;;;5.62;42.78;99525.59;4896014;29;20045;-83
2022/03/04 09:16:21;;;;;;;14.70;6.53;;;;;;;5.86;41.34;99521.41;4882762;29;20477;-80
2022/03/04 09:18:49;;;;;;;32.15;7.75;;;;;;;6.05;41.25;99531.91;4883878;29;20047;-80
2022/03/04 09:21:19;;;;;;;10.40;6.60;;;;;;;6.39;40.97;99503.63;4884083;29;20041;-79
2022/03/04 09:23:53;;;;;;;13.65;6.38;;;;;;;6.93;40.51;99525.31;4883249;29;20071;-82
2022/03/04 09:26:29;;;;;;;;;;;;;;;;;;;;;
2022/03/04 09:28:56;;;;;;;11.40;6.60;;;;;;;8.31;39.24;99529.44;4893799;29;20439;-83
2022/03/04 09:31:27;;;;;;;10.98;6.32;;;;;;;9.80;39.27;99499.88;4897142;29;20100;-80
2022/03/04 09:33:56;;;;;;;13.38;6.53;;;;;;;11.39;37.09;99507.28;4882061;29;20041;-80
2022/03/04 09:36:27;;;;;;;14.23;6.57;;;;;;;11.66;35.32;99504.25;4883280;29;20068;-80
2022/03/04 09:38:53;;;;;;;10.32;6.40;;;;;;;11.46;34.77;99508.06;4865595;29;20127;-79
2022/03/04 09:41:19;;;;;;;10.40;6.63;;;;;;;10.97;34.58;99465.44;4882971;29;20136;-80
2022/03/04 09:43:46;;;;;;;10.38;6.70;;;;;;;11.29;34.57;99508.34;4881902;29;20101;-79
2022/03/04 09:46:13;;;;;;;9.10;6.40;;;;;;;11.51;33.57;99505.38;4866347;29;20087;-78
2022/03/04 09:48:43;;;;;;;10.43;6.65;;;;;;;11.29;33.27;99461.47;4892034;29;20044;-79
2022/03/04 09:51:09;;;;;;;12.20;7.18;;;;;;;11.36;33.30;99491.72;4888811;29;20040;-78
2022/03/04 09:53:35;;;;;;;21.80;7.70;;;;;;;10.96;33.30;99489.75;4897497;29;20060;-80
2022/03/04 09:56:01;;;;;;;14.38;7.00;;;;;;;10.89;33.64;99491.59;4885620;29;20036;-81
2022/03/04 09:58:27;;;;;;;13.43;7.93;;;;;;;10.79;33.71;99477.84;4917117;29;20044;-81
2022/03/04 10:00:58;;;;;;;12.40;7.00;;;;;;;11.38;33.68;99489.09;4899973;29;20064;-81
2022/03/04 10:03:30;;;;;;;11.27;6.85;;;;;;;12.14;32.51;99493.78;4907109;29;20148;-81
2022/03/04 10:05:59;;;;;;;12.10;7.38;;;;;;;11.72;32.13;99481.53;4904581;29;20096;-81
2022/03/04 10:08:26;;;;;;;15.32;7.05;;;;;;;11.22;32.13;99471.13;4901277;29;20041;-80
2022/03/04 10:10:54;;;;;;;13.32;6.70;;;;;;;10.81;32.69;99493.47;4874666;29;20076;-82
2022/03/04 10:13:51;;;;;;;11.43;6.78;;;;;;;10.29;33.00;99490.66;4904229;29;20071;-76
2022/03/04 10:16:31;;;;;;;9.35;6.43;;;;;;;10.39;33.97;99478.44;4857969;29;20494;-80
2022/03/04 10:19:18;;;;;;;10.98;7.30;;;;;;;10.96;33.36;99489.75;4882829;29;20041;-77
2022/03/04 10:21:54;;;;;;;10.88;7.10;;;;;;;10.89;31.97;99494.19;4918082;29;20045;-79
2022/03/04 10:24:29;;;;;;;9.27;6.60;;;;;;;10.48;32.77;99488.69;4906717;29;20063;-84
2022/03/04 10:27:15;;;;;;;10.30;6.90;;;;;;;10.28;32.60;99491.53;4875528;29;20044;-80
2022/03/04 10:29:50;;;;;;;11.45;6.35;;;;;;;10.03;32.99;99486.63;4876785;29;20048;-79
2022/03/04 10:32:22;;;;;;;10.68;6.13;;;;;;;9.76;32.97;99488.66;4878351;29;20052;-79
2022/03/04 10:34:58;;;;;;;21.38;6.15;;;;;;;9.65;33.38;99485.31;4877639;29;20051;-80
2022/03/04 10:37:57;;;;;;;14.80;6.30;;;;;;;9.32;33.45;99487.34;4909616;29;20132;-82
2022/03/04 10:40:28;;;;;;;10.35;6.38;;;;;;;8.98;33.30;99462.50;4879478;29;20132;-79
2022/03/04 10:42:59;;;;;;;11.02;5.75;;;;;;;9.14;33.83;99494.41;4879516;29;20045;-80
2022/03/04 10:45:42;;;;;;;8.23;5.07;;;;;;;8.97;33.75;99485.91;4879681;29;20095;-80
2022/03/04 10:48:20;;;;;;;12.43;6.13;;;;;;;9.10;33.92;99502.25;4883676;29;20449;-79
2022/03/04 10:50:51;;;;;;;7.50;5.68;;;;;;;9.23;33.41;99497.81;4885838;29;20052;-78
2022/03/04 10:53:31;;;;;;;7.78;5.25;;;;;;;9.11;33.57;99483.19;4890957;29;20041;-80
2022/03/04 10:56:02;;;;;;;9.85;5.70;;;;;;;9.07;33.64;99491.88;4880458;29;20074;-80
2022/03/04 10:58:37;;;;;;;8.63;5.20;;;;;;;8.95;33.11;99482.44;4906683;29;20041;-78
2022/03/04 11:01:09;;;;;;;8.63;5.40;;;;;;;8.55;33.48;99484.44;4877130;29;20060;-81
2022/03/04 11:03:38;;;;;;;8.82;4.63;;;;;;;8.32;34.50;99481.91;4864834;29;20056;-77
2022/03/04 11:06:07;;;;;;;14.38;5.00;;;;;;;7.83;34.32;99442.38;4885069;29;20045;-77
2022/03/04 11:08:36;;;;;;;13.90;5.70;;;;;;;7.97;35.05;99462.19;4916003;29;20066;-80
2022/03/04 11:11:04;;;;;;;11.60;5.07;;;;;;;8.19;34.73;99480.25;4899392;29;20049;-79
2022/03/04 11:13:32;;;;;;;7.32;5.13;;;;;;;8.34;34.55;99484.53;4880597;29;20045;-77
2022/03/04 11:15:58;;;;;;;7.78;5.25;;;;;;;8.12;34.37;99444.00;4881646;29;20468;-76
2022/03/04 11:18:30;;;;;;;9.65;5.18;;;;;;;8.63;34.51;99475.72;4912567;29;20037;-80
2022/03/04 11:20:59;;;;;;;9.93;4.75;;;;;;;8.81;34.70;99477.34;4895480;29;20045;-77
2022/03/04 11:23:35;;;;;;;10.65;4.75;;;;;;;8.77;34.16;99473.94;4880084;29;20476;-80
2022/03/04 11:26:04;;;;;;;9.02;4.93;;;;;;;8.63;34.28;99473.13;4881945;29;20503;-78
2022/03/04 11:28:41;;;;;;;7.18;4.63;;;;;;;8.41;34.34;99476.69;4849623;29;20049;-76
2022/03/04 11:31:15;;;;;;;10.32;4.45;;;;;;;8.25;34.64;99467.28;4879777;29;20097;-80
2022/03/04 11:33:54;;;;;;;6.30;3.80;;;;;;;8.23;35.02;99466.41;4880648;29;20049;-78
2022/03/04 11:36:25;;;;;;;6.70;3.75;;;;;;;8.31;35.27;99461.19;4881659;29;20048;-78
2022/03/04 11:38:54;;;;;;;6.03;3.90;;;;;;;8.38;34.78;99470.69;4863717;29;20064;-77
2022/03/04 11:41:25;;;;;;;8.15;4.03;;;;;;;8.16;34.73;99469.91;4882377;29;20052;-76